sensor_id;sensor_type;location;lat;lon;timestamp;temperature;humidity
47336;DHT22;33068;51.990;5.926;2022-09-04T00:00:10;18.10;99.90
47336;DHT22;33068;51.990;5.926;2022-09-04T00:02:49;18.00;99.90
47336;DHT22;33068;51.990;5.926;2022-09-04T00:05:23;18.00;99.90
47336;DHT22;33068;51.990;5.926;2022-09-04T00:08:06;18.00;99.90
47336;DHT22;33068;51.990;5.926;2022-09-04T00:10:44;17.90;99.90
47336;DHT22;33068;51.990;5.926;2022-09-04T00:13:17;18.10;99.90
47336;DHT22;33068;51.990;5.926;2022-09-04T00:15:51;17.80;99.90
47336;DHT22;33068;51.990;5.926;2022-09-04T00:18:25;17.80;99.90
47336;DHT22;33068;51.990;5.926;2022-09-04T00:21:00;17.80;99.90
47336;DHT22;33068;51.990;5.926;2022-09-04T00:23:34;17.70;99.90
47336;DHT22;33068;51.990;5.926;2022-09-04T00:26:08;17.70;99.90
47336;DHT22;33068;51.990;5.926;2022-09-04T00:28:39;17.70;99.90
47336;DHT22;33068;51.990;5.926;2022-09-04T00:31:17;17.60;99.90
47336;DHT22;33068;51.990;5.926;2022-09-04T00:33:57;17.60;99.90
47336;DHT22;33068;51.990;5.926;2022-09-04T00:36:27;17.60;99.90
47336;DHT22;33068;51.990;5.926;2022-09-04T00:38:59;17.60;99.90
47336;DHT22;33068;51.990;5.926;2022-09-04T00:41:30;17.60;99.90
47336;DHT22;33068;51.990;5.926;2022-09-04T00:44:26;17.60;99.90
47336;DHT22;33068;51.990;5.926;2022-09-04T00:47:07;17.60;99.90
47336;DHT22;33068;51.990;5.926;2022-09-04T00:50:03;17.60;99.90
47336;DHT22;33068;51.990;5.926;2022-09-04T00:53:12;17.50;99.90
47336;DHT22;33068;51.990;5.926;2022-09-04T00:56:03;17.50;99.90
47336;DHT22;33068;51.990;5.926;2022-09-04T00:58:46;17.40;99.90
47336;DHT22;33068;51.990;5.926;2022-09-04T01:01:20;17.40;99.90
47336;DHT22;33068;51.990;5.926;2022-09-04T01:04:03;17.40;99.90
47336;DHT22;33068;51.990;5.926;2022-09-04T01:06:37;17.40;99.90
47336;DHT22;33068;51.990;5.926;2022-09-04T01:09:31;17.30;99.90
47336;DHT22;33068;51.990;5.926;2022-09-04T01:12:13;17.30;99.90
47336;DHT22;33068;51.990;5.926;2022-09-04T01:14:49;17.20;99.90
47336;DHT22;33068;51.990;5.926;2022-09-04T01:17:25;17.20;99.90
47336;DHT22;33068;51.990;5.926;2022-09-04T01:19:59;17.20;99.90
47336;DHT22;33068;51.990;5.926;2022-09-04T01:25:32;17.10;99.90
47336;DHT22;33068;51.990;5.926;2022-09-04T01:28:06;17.00;99.90
47336;DHT22;33068;51.990;5.926;2022-09-04T01:30:41;17.00;99.90
47336;DHT22;33068;51.990;5.926;2022-09-04T01:33:12;17.00;99.90
47336;DHT22;33068;51.990;5.926;2022-09-04T01:35:47;17.00;99.90
47336;DHT22;33068;51.990;5.926;2022-09-04T01:38:21;16.90;99.90
47336;DHT22;33068;51.990;5.926;2022-09-04T01:40:55;16.90;99.90
47336;DHT22;33068;51.990;5.926;2022-09-04T01:43:26;16.90;99.90
47336;DHT22;33068;51.990;5.926;2022-09-04T01:46:13;16.80;99.90
47336;DHT22;33068;51.990;5.926;2022-09-04T01:48:46;16.50;99.90
47336;DHT22;33068;51.990;5.926;2022-09-04T01:51:23;16.80;99.90
47336;DHT22;33068;51.990;5.926;2022-09-04T01:54:02;16.80;99.90
47336;DHT22;33068;51.990;5.926;2022-09-04T01:56:36;16.80;99.90
47336;DHT22;33068;51.990;5.926;2022-09-04T01:59:14;16.80;99.90
47336;DHT22;33068;51.990;5.926;2022-09-04T02:01:50;16.80;99.90
47336;DHT22;33068;51.990;5.926;2022-09-04T02:04:45;16.70;99.90
47336;DHT22;33068;51.990;5.926;2022-09-04T02:07:19;16.70;99.90
47336;DHT22;33068;51.990;5.926;2022-09-04T02:09:59;16.80;99.90
47336;DHT22;33068;51.990;5.926;2022-09-04T02:12:32;16.70;99.90
47336;DHT22;33068;51.990;5.926;2022-09-04T02:15:10;16.70;99.90
47336;DHT22;33068;51.990;5.926;2022-09-04T02:17:44;16.70;99.90
47336;DHT22;33068;51.990;5.926;2022-09-04T02:20:22;16.70;99.90
47336;DHT22;33068;51.990;5.926;2022-09-04T02:22:58;16.60;99.90
47336;DHT22;33068;51.990;5.926;2022-09-04T02:25:34;16.70;99.90
47336;DHT22;33068;51.990;5.926;2022-09-04T02:30:58;16.60;99.90
47336;DHT22;33068;51.990;5.926;2022-09-04T02:33:33;16.60;99.90
47336;DHT22;33068;51.990;5.926;2022-09-04T02:36:11;16.60;99.90
47336;DHT22;33068;51.990;5.926;2022-09-04T02:38:47;16.50;99.90
47336;DHT22;33068;51.990;5.926;2022-09-04T02:41:24;16.60;99.90
47336;DHT22;33068;51.990;5.926;2022-09-04T02:44:09;16.60;99.90
47336;DHT22;33068;51.990;5.926;2022-09-04T02:46:47;16.60;99.90
47336;DHT22;33068;51.990;5.926;2022-09-04T02:49:23;16.60;99.90
47336;DHT22;33068;51.990;5.926;2022-09-04T02:52:04;16.50;99.90
47336;DHT22;33068;51.990;5.926;2022-09-04T02:54:45;16.50;99.90
47336;DHT22;33068;51.990;5.926;2022-09-04T02:57:24;16.50;99.90
47336;DHT22;33068;51.990;5.926;2022-09-04T03:00:00;16.40;99.90
47336;DHT22;33068;51.990;5.926;2022-09-04T03:02:36;16.40;99.90
47336;DHT22;33068;51.990;5.926;2022-09-04T03:05:10;16.40;99.90
47336;DHT22;33068;51.990;5.926;2022-09-04T03:07:48;16.40;99.90
47336;DHT22;33068;51.990;5.926;2022-09-04T03:10:17;16.30;99.90
47336;DHT22;33068;51.990;5.926;2022-09-04T03:12:50;16.30;99.90
47336;DHT22;33068;51.990;5.926;2022-09-04T03:15:22;16.30;99.90
47336;DHT22;33068;51.990;5.926;2022-09-04T03:17:57;16.30;99.90
47336;DHT22;33068;51.990;5.926;2022-09-04T03:20:28;16.30;99.90
47336;DHT22;33068;51.990;5.926;2022-09-04T03:23:02;16.30;99.90
47336;DHT22;33068;51.990;5.926;2022-09-04T03:25:55;16.30;99.90
47336;DHT22;33068;51.990;5.926;2022-09-04T03:28:40;16.20;99.90
47336;DHT22;33068;51.990;5.926;2022-09-04T03:31:25;16.20;99.90
47336;DHT22;33068;51.990;5.926;2022-09-04T03:34:02;16.20;99.90
47336;DHT22;33068;51.990;5.926;2022-09-04T03:36:40;16.20;99.90
47336;DHT22;33068;51.990;5.926;2022-09-04T03:39:18;16.20;99.90
47336;DHT22;33068;51.990;5.926;2022-09-04T03:41:53;16.20;99.90
47336;DHT22;33068;51.990;5.926;2022-09-04T03:44:30;16.20;99.90
47336;DHT22;33068;51.990;5.926;2022-09-04T03:47:09;16.20;99.90
47336;DHT22;33068;51.990;5.926;2022-09-04T03:49:49;16.20;99.90
47336;DHT22;33068;51.990;5.926;2022-09-04T03:52:23;16.10;99.90
47336;DHT22;33068;51.990;5.926;2022-09-04T03:55:12;16.10;99.90
47336;DHT22;33068;51.990;5.926;2022-09-04T03:57:54;16.10;99.90
47336;DHT22;33068;51.990;5.926;2022-09-04T04:00:24;16.10;99.90
47336;DHT22;33068;51.990;5.926;2022-09-04T04:03:07;16.10;99.90
47336;DHT22;33068;51.990;5.926;2022-09-04T04:05:45;16.10;99.90
47336;DHT22;33068;51.990;5.926;2022-09-04T04:11:15;16.00;99.90
47336;DHT22;33068;51.990;5.926;2022-09-04T04:14:34;16.00;99.90
47336;DHT22;33068;51.990;5.926;2022-09-04T04:17:20;16.00;99.90
47336;DHT22;33068;51.990;5.926;2022-09-04T04:20:17;15.90;99.90
47336;DHT22;33068;51.990;5.926;2022-09-04T04:22:58;15.90;99.90
47336;DHT22;33068;51.990;5.926;2022-09-04T04:25:40;15.90;99.90
47336;DHT22;33068;51.990;5.926;2022-09-04T04:28:27;15.90;99.90
47336;DHT22;33068;51.990;5.926;2022-09-04T04:31:05;15.90;99.90
47336;DHT22;33068;51.990;5.926;2022-09-04T04:33:46;15.90;99.90
47336;DHT22;33068;51.990;5.926;2022-09-04T04:36:24;15.80;99.90
47336;DHT22;33068;51.990;5.926;2022-09-04T04:39:08;15.80;99.90
47336;DHT22;33068;51.990;5.926;2022-09-04T04:42:09;15.80;99.90
47336;DHT22;33068;51.990;5.926;2022-09-04T04:45:14;15.80;99.90
47336;DHT22;33068;51.990;5.926;2022-09-04T04:48:31;15.80;99.90
47336;DHT22;33068;51.990;5.926;2022-09-04T04:51:20;15.80;99.90
47336;DHT22;33068;51.990;5.926;2022-09-04T04:53:57;15.80;99.90
47336;DHT22;33068;51.990;5.926;2022-09-04T04:56:32;15.80;99.90
47336;DHT22;33068;51.990;5.926;2022-09-04T04:59:19;15.80;99.90
47336;DHT22;33068;51.990;5.926;2022-09-04T05:01:57;15.80;99.90
47336;DHT22;33068;51.990;5.926;2022-09-04T05:04:39;15.70;99.90
47336;DHT22;33068;51.990;5.926;2022-09-04T05:07:14;15.70;99.90
47336;DHT22;33068;51.990;5.926;2022-09-04T05:09:49;15.80;99.90
47336;DHT22;33068;51.990;5.926;2022-09-04T05:12:26;15.80;99.90
47336;DHT22;33068;51.990;5.926;2022-09-04T05:15:02;15.80;99.90
47336;DHT22;33068;51.990;5.926;2022-09-04T05:17:39;15.70;99.90
47336;DHT22;33068;51.990;5.926;2022-09-04T05:20:34;15.80;99.90
47336;DHT22;33068;51.990;5.926;2022-09-04T05:23:17;15.80;99.90
47336;DHT22;33068;51.990;5.926;2022-09-04T05:25:56;15.90;99.90
47336;DHT22;33068;51.990;5.926;2022-09-04T05:28:31;15.80;99.90
47336;DHT22;33068;51.990;5.926;2022-09-04T05:31:13;15.90;99.90
47336;DHT22;33068;51.990;5.926;2022-09-04T05:33:55;15.90;99.90
47336;DHT22;33068;51.990;5.926;2022-09-04T05:36:31;15.90;99.90
47336;DHT22;33068;51.990;5.926;2022-09-04T05:39:08;15.90;99.90
47336;DHT22;33068;51.990;5.926;2022-09-04T05:41:54;16.00;99.90
47336;DHT22;33068;51.990;5.926;2022-09-04T05:44:35;15.90;99.90
47336;DHT22;33068;51.990;5.926;2022-09-04T05:47:15;15.90;99.90
47336;DHT22;33068;51.990;5.926;2022-09-04T05:53:03;16.00;99.90
47336;DHT22;33068;51.990;5.926;2022-09-04T05:55:56;16.00;99.90
47336;DHT22;33068;51.990;5.926;2022-09-04T05:58:48;16.20;99.90
47336;DHT22;33068;51.990;5.926;2022-09-04T06:01:32;16.20;99.90
47336;DHT22;33068;51.990;5.926;2022-09-04T06:07:23;16.30;99.90
47336;DHT22;33068;51.990;5.926;2022-09-04T06:10:06;16.40;99.90
47336;DHT22;33068;51.990;5.926;2022-09-04T06:12:54;16.50;99.90
47336;DHT22;33068;51.990;5.926;2022-09-04T06:15:39;16.60;99.90
47336;DHT22;33068;51.990;5.926;2022-09-04T06:18:25;16.60;99.90
47336;DHT22;33068;51.990;5.926;2022-09-04T06:21:09;16.70;99.90
47336;DHT22;33068;51.990;5.926;2022-09-04T06:23:58;16.80;99.90
47336;DHT22;33068;51.990;5.926;2022-09-04T06:26:44;16.90;99.90
47336;DHT22;33068;51.990;5.926;2022-09-04T06:29:36;17.00;99.90
47336;DHT22;33068;51.990;5.926;2022-09-04T06:38:11;17.30;99.90
47336;DHT22;33068;51.990;5.926;2022-09-04T06:40:56;17.40;99.90
47336;DHT22;33068;51.990;5.926;2022-09-04T06:43:31;17.50;99.90
47336;DHT22;33068;51.990;5.926;2022-09-04T06:46:09;17.50;99.90
47336;DHT22;33068;51.990;5.926;2022-09-04T06:48:51;17.60;99.90
47336;DHT22;33068;51.990;5.926;2022-09-04T06:51:32;17.60;99.90
47336;DHT22;33068;51.990;5.926;2022-09-04T06:54:10;17.70;99.90
47336;DHT22;33068;51.990;5.926;2022-09-04T06:56:54;17.70;99.90
47336;DHT22;33068;51.990;5.926;2022-09-04T06:59:41;17.80;99.90
47336;DHT22;33068;51.990;5.926;2022-09-04T07:02:19;18.00;99.90
47336;DHT22;33068;51.990;5.926;2022-09-04T07:04:58;18.10;99.90
47336;DHT22;33068;51.990;5.926;2022-09-04T07:07:33;18.30;99.90
47336;DHT22;33068;51.990;5.926;2022-09-04T07:10:05;18.50;99.90
47336;DHT22;33068;51.990;5.926;2022-09-04T07:12:57;18.60;99.90
47336;DHT22;33068;51.990;5.926;2022-09-04T07:15:48;18.60;99.90
47336;DHT22;33068;51.990;5.926;2022-09-04T07:18:37;18.80;99.90
47336;DHT22;33068;51.990;5.926;2022-09-04T07:21:14;19.00;99.90
47336;DHT22;33068;51.990;5.926;2022-09-04T07:23:46;19.00;99.90
47336;DHT22;33068;51.990;5.926;2022-09-04T07:26:21;19.00;99.90
47336;DHT22;33068;51.990;5.926;2022-09-04T07:29:07;19.10;99.90
47336;DHT22;33068;51.990;5.926;2022-09-04T07:31:38;19.30;99.90
47336;DHT22;33068;51.990;5.926;2022-09-04T07:34:15;19.40;99.90
47336;DHT22;33068;51.990;5.926;2022-09-04T07:36:50;19.50;99.90
47336;DHT22;33068;51.990;5.926;2022-09-04T07:39:27;19.50;99.90
47336;DHT22;33068;51.990;5.926;2022-09-04T07:42:00;19.60;99.90
47336;DHT22;33068;51.990;5.926;2022-09-04T07:44:38;19.60;99.90
47336;DHT22;33068;51.990;5.926;2022-09-04T07:47:12;19.60;99.90
47336;DHT22;33068;51.990;5.926;2022-09-04T07:49:48;19.60;99.90
47336;DHT22;33068;51.990;5.926;2022-09-04T07:52:28;19.50;99.90
47336;DHT22;33068;51.990;5.926;2022-09-04T07:55:10;19.50;99.90
47336;DHT22;33068;51.990;5.926;2022-09-04T08:00:54;19.60;99.90
47336;DHT22;33068;51.990;5.926;2022-09-04T08:03:37;19.60;99.90
47336;DHT22;33068;51.990;5.926;2022-09-04T08:06:17;19.70;99.90
47336;DHT22;33068;51.990;5.926;2022-09-04T08:12:29;19.80;99.90
47336;DHT22;33068;51.990;5.926;2022-09-04T08:15:06;19.90;99.90
47336;DHT22;33068;51.990;5.926;2022-09-04T08:17:49;20.00;99.90
47336;DHT22;33068;51.990;5.926;2022-09-04T08:20:33;20.10;99.90
47336;DHT22;33068;51.990;5.926;2022-09-04T08:23:15;20.20;99.90
47336;DHT22;33068;51.990;5.926;2022-09-04T08:25:51;20.30;99.90
47336;DHT22;33068;51.990;5.926;2022-09-04T08:28:46;20.40;99.90
47336;DHT22;33068;51.990;5.926;2022-09-04T08:31:29;20.60;99.90
47336;DHT22;33068;51.990;5.926;2022-09-04T08:37:18;21.00;99.90
47336;DHT22;33068;51.990;5.926;2022-09-04T08:39:57;21.90;99.90
47336;DHT22;33068;51.990;5.926;2022-09-04T08:42:55;22.60;99.90
47336;DHT22;33068;51.990;5.926;2022-09-04T08:49:01;23.10;99.90
47336;DHT22;33068;51.990;5.926;2022-09-04T08:51:51;23.10;99.90
47336;DHT22;33068;51.990;5.926;2022-09-04T08:57:53;23.50;99.90
47336;DHT22;33068;51.990;5.926;2022-09-04T09:00:30;23.60;99.90
47336;DHT22;33068;51.990;5.926;2022-09-04T09:03:29;23.90;99.90
47336;DHT22;33068;51.990;5.926;2022-09-04T09:06:41;24.20;99.90
47336;DHT22;33068;51.990;5.926;2022-09-04T09:09:49;24.40;99.90
47336;DHT22;33068;51.990;5.926;2022-09-04T09:16:00;24.50;99.90
47336;DHT22;33068;51.990;5.926;2022-09-04T09:18:35;24.90;99.20
47336;DHT22;33068;51.990;5.926;2022-09-04T09:21:10;24.90;98.60
47336;DHT22;33068;51.990;5.926;2022-09-04T09:23:47;25.00;98.20
47336;DHT22;33068;51.990;5.926;2022-09-04T09:26:26;25.10;98.60
47336;DHT22;33068;51.990;5.926;2022-09-04T09:35:56;25.50;97.30
47336;DHT22;33068;51.990;5.926;2022-09-04T09:45:14;26.00;95.60
47336;DHT22;33068;51.990;5.926;2022-09-04T09:48:28;26.30;94.70
47336;DHT22;33068;51.990;5.926;2022-09-04T09:51:35;26.40;94.00
47336;DHT22;33068;51.990;5.926;2022-09-04T09:54:30;26.20;94.10
47336;DHT22;33068;51.990;5.926;2022-09-04T10:00:15;26.70;93.10
47336;DHT22;33068;51.990;5.926;2022-09-04T10:06:08;26.80;93.30
47336;DHT22;33068;51.990;5.926;2022-09-04T10:09:07;27.10;92.80
47336;DHT22;33068;51.990;5.926;2022-09-04T10:12:22;27.20;92.30
47336;DHT22;33068;51.990;5.926;2022-09-04T10:15:23;27.20;92.40
47336;DHT22;33068;51.990;5.926;2022-09-04T10:21:24;27.20;92.10
47336;DHT22;33068;51.990;5.926;2022-09-04T10:24:34;27.40;92.00
47336;DHT22;33068;51.990;5.926;2022-09-04T10:27:26;27.80;91.60
47336;DHT22;33068;51.990;5.926;2022-09-04T10:30:04;28.00;91.40
47336;DHT22;33068;51.990;5.926;2022-09-04T10:32:53;27.60;90.90
47336;DHT22;33068;51.990;5.926;2022-09-04T10:35:23;27.90;91.00
47336;DHT22;33068;51.990;5.926;2022-09-04T10:38:24;28.00;90.90
47336;DHT22;33068;51.990;5.926;2022-09-04T10:41:26;28.00;90.20
47336;DHT22;33068;51.990;5.926;2022-09-04T10:44:09;27.90;90.10
47336;DHT22;33068;51.990;5.926;2022-09-04T10:46:49;28.10;90.10
47336;DHT22;33068;51.990;5.926;2022-09-04T10:52:48;28.00;90.00
47336;DHT22;33068;51.990;5.926;2022-09-04T10:55:35;28.10;89.20
47336;DHT22;33068;51.990;5.926;2022-09-04T10:58:38;28.10;90.00
47336;DHT22;33068;51.990;5.926;2022-09-04T11:04:42;28.40;88.70
47336;DHT22;33068;51.990;5.926;2022-09-04T11:07:28;28.40;87.90
47336;DHT22;33068;51.990;5.926;2022-09-04T11:10:33;28.00;88.90
47336;DHT22;33068;51.990;5.926;2022-09-04T11:16:31;27.60;89.90
47336;DHT22;33068;51.990;5.926;2022-09-04T11:19:30;27.90;89.80
47336;DHT22;33068;51.990;5.926;2022-09-04T11:25:39;27.40;88.70
47336;DHT22;33068;51.990;5.926;2022-09-04T11:28:42;27.10;90.60
47336;DHT22;33068;51.990;5.926;2022-09-04T11:31:32;26.90;90.60
47336;DHT22;33068;51.990;5.926;2022-09-04T11:34:49;27.00;91.30
47336;DHT22;33068;51.990;5.926;2022-09-04T11:37:43;27.20;90.60
47336;DHT22;33068;51.990;5.926;2022-09-04T11:43:49;27.90;89.40
47336;DHT22;33068;51.990;5.926;2022-09-04T11:46:39;27.80;89.70
47336;DHT22;33068;51.990;5.926;2022-09-04T11:49:31;28.20;89.20
47336;DHT22;33068;51.990;5.926;2022-09-04T11:52:15;28.50;88.50
47336;DHT22;33068;51.990;5.926;2022-09-04T11:55:13;29.20;87.30
47336;DHT22;33068;51.990;5.926;2022-09-04T11:58:02;29.60;84.70
47336;DHT22;33068;51.990;5.926;2022-09-04T12:00:40;29.70;84.40
47336;DHT22;33068;51.990;5.926;2022-09-04T12:06:24;28.50;85.20
47336;DHT22;33068;51.990;5.926;2022-09-04T12:09:30;28.40;85.40
47336;DHT22;33068;51.990;5.926;2022-09-04T12:12:51;28.80;85.10
47336;DHT22;33068;51.990;5.926;2022-09-04T12:16:03;29.20;83.90
47336;DHT22;33068;51.990;5.926;2022-09-04T12:18:59;29.10;83.90
47336;DHT22;33068;51.990;5.926;2022-09-04T12:22:01;28.90;86.00
47336;DHT22;33068;51.990;5.926;2022-09-04T12:25:01;28.70;85.50
47336;DHT22;33068;51.990;5.926;2022-09-04T12:30:48;28.30;85.30
47336;DHT22;33068;51.990;5.926;2022-09-04T12:39:58;27.70;86.80
47336;DHT22;33068;51.990;5.926;2022-09-04T12:42:46;27.70;88.20
47336;DHT22;33068;51.990;5.926;2022-09-04T12:45:22;27.80;86.90
47336;DHT22;33068;51.990;5.926;2022-09-04T12:47:58;28.00;86.40
47336;DHT22;33068;51.990;5.926;2022-09-04T12:50:35;28.40;85.30
47336;DHT22;33068;51.990;5.926;2022-09-04T12:56:13;29.10;84.30
47336;DHT22;33068;51.990;5.926;2022-09-04T12:58:54;29.70;82.20
47336;DHT22;33068;51.990;5.926;2022-09-04T13:01:35;29.80;82.70
47336;DHT22;33068;51.990;5.926;2022-09-04T13:04:15;29.90;82.30
47336;DHT22;33068;51.990;5.926;2022-09-04T13:06:56;30.20;81.80
47336;DHT22;33068;51.990;5.926;2022-09-04T13:09:34;30.40;80.90
47336;DHT22;33068;51.990;5.926;2022-09-04T13:12:12;30.70;80.40
47336;DHT22;33068;51.990;5.926;2022-09-04T13:14:52;30.70;80.10
47336;DHT22;33068;51.990;5.926;2022-09-04T13:17:32;30.70;79.20
47336;DHT22;33068;51.990;5.926;2022-09-04T13:20:18;30.60;79.70
47336;DHT22;33068;51.990;5.926;2022-09-04T13:23:02;30.50;79.50
47336;DHT22;33068;51.990;5.926;2022-09-04T13:25:44;29.90;80.70
47336;DHT22;33068;51.990;5.926;2022-09-04T13:28:23;29.70;81.70
47336;DHT22;33068;51.990;5.926;2022-09-04T13:30:59;29.40;82.40
47336;DHT22;33068;51.990;5.926;2022-09-04T13:33:40;29.50;81.50
47336;DHT22;33068;51.990;5.926;2022-09-04T13:36:23;29.70;81.80
47336;DHT22;33068;51.990;5.926;2022-09-04T13:39:26;29.60;81.40
47336;DHT22;33068;51.990;5.926;2022-09-04T13:42:20;29.70;80.60
47336;DHT22;33068;51.990;5.926;2022-09-04T13:45:06;29.90;80.80
47336;DHT22;33068;51.990;5.926;2022-09-04T13:47:47;29.70;82.00
47336;DHT22;33068;51.990;5.926;2022-09-04T13:50:20;29.30;81.40
47336;DHT22;33068;51.990;5.926;2022-09-04T13:52:53;29.10;82.60
47336;DHT22;33068;51.990;5.926;2022-09-04T13:55:24;29.40;82.30
47336;DHT22;33068;51.990;5.926;2022-09-04T13:58:00;29.70;81.80
47336;DHT22;33068;51.990;5.926;2022-09-04T14:00:33;29.60;81.50
47336;DHT22;33068;51.990;5.926;2022-09-04T14:05:47;29.40;82.10
47336;DHT22;33068;51.990;5.926;2022-09-04T14:08:16;29.20;83.40
47336;DHT22;33068;51.990;5.926;2022-09-04T14:11:10;28.90;82.00
47336;DHT22;33068;51.990;5.926;2022-09-04T14:13:54;28.70;83.40
47336;DHT22;33068;51.990;5.926;2022-09-04T14:16:27;28.80;83.10
47336;DHT22;33068;51.990;5.926;2022-09-04T14:19:12;28.70;82.50
47336;DHT22;33068;51.990;5.926;2022-09-04T14:22:01;28.60;81.10
47336;DHT22;33068;51.990;5.926;2022-09-04T14:24:37;28.60;82.00
47336;DHT22;33068;51.990;5.926;2022-09-04T14:27:13;28.70;81.00
47336;DHT22;33068;51.990;5.926;2022-09-04T14:29:54;28.70;81.30
47336;DHT22;33068;51.990;5.926;2022-09-04T14:32:28;28.70;80.30
47336;DHT22;33068;51.990;5.926;2022-09-04T14:35:06;28.50;82.20
47336;DHT22;33068;51.990;5.926;2022-09-04T14:37:57;28.40;81.90
47336;DHT22;33068;51.990;5.926;2022-09-04T14:40:31;28.90;79.00
47336;DHT22;33068;51.990;5.926;2022-09-04T14:43:06;29.10;80.30
47336;DHT22;33068;51.990;5.926;2022-09-04T14:45:53;29.10;80.00
47336;DHT22;33068;51.990;5.926;2022-09-04T14:48:24;29.40;79.40
47336;DHT22;33068;51.990;5.926;2022-09-04T14:50:54;29.50;77.60
47336;DHT22;33068;51.990;5.926;2022-09-04T14:53:27;29.40;77.80
47336;DHT22;33068;51.990;5.926;2022-09-04T14:56:19;29.30;78.40
47336;DHT22;33068;51.990;5.926;2022-09-04T14:58:52;29.30;79.60
47336;DHT22;33068;51.990;5.926;2022-09-04T15:01:22;29.40;77.80
47336;DHT22;33068;51.990;5.926;2022-09-04T15:03:55;29.20;77.70
47336;DHT22;33068;51.990;5.926;2022-09-04T15:06:28;29.60;76.70
47336;DHT22;33068;51.990;5.926;2022-09-04T15:09:02;29.80;76.90
47336;DHT22;33068;51.990;5.926;2022-09-04T15:11:42;29.80;76.30
47336;DHT22;33068;51.990;5.926;2022-09-04T15:14:18;30.00;76.50
47336;DHT22;33068;51.990;5.926;2022-09-04T15:17:00;30.10;76.10
47336;DHT22;33068;51.990;5.926;2022-09-04T15:19:41;30.30;75.90
47336;DHT22;33068;51.990;5.926;2022-09-04T15:22:15;30.30;74.30
47336;DHT22;33068;51.990;5.926;2022-09-04T15:24:51;30.50;73.60
47336;DHT22;33068;51.990;5.926;2022-09-04T15:27:29;30.70;73.20
47336;DHT22;33068;51.990;5.926;2022-09-04T15:30:05;30.70;73.30
47336;DHT22;33068;51.990;5.926;2022-09-04T15:32:39;30.60;74.10
47336;DHT22;33068;51.990;5.926;2022-09-04T15:35:14;30.60;74.60
47336;DHT22;33068;51.990;5.926;2022-09-04T15:37:46;30.60;73.50
47336;DHT22;33068;51.990;5.926;2022-09-04T15:40:23;30.60;73.80
47336;DHT22;33068;51.990;5.926;2022-09-04T15:43:01;30.30;72.50
47336;DHT22;33068;51.990;5.926;2022-09-04T15:45:40;30.20;72.70
47336;DHT22;33068;51.990;5.926;2022-09-04T15:48:23;29.90;72.70
47336;DHT22;33068;51.990;5.926;2022-09-04T15:51:08;29.70;75.40
47336;DHT22;33068;51.990;5.926;2022-09-04T15:53:41;29.50;74.10
47336;DHT22;33068;51.990;5.926;2022-09-04T15:56:28;29.50;75.10
47336;DHT22;33068;51.990;5.926;2022-09-04T15:59:05;29.30;73.90
47336;DHT22;33068;51.990;5.926;2022-09-04T16:01:43;29.20;73.90
47336;DHT22;33068;51.990;5.926;2022-09-04T16:04:18;29.30;74.70
47336;DHT22;33068;51.990;5.926;2022-09-04T16:06:50;29.20;73.90
47336;DHT22;33068;51.990;5.926;2022-09-04T16:09:24;29.60;75.20
47336;DHT22;33068;51.990;5.926;2022-09-04T16:11:58;30.30;74.60
47336;DHT22;33068;51.990;5.926;2022-09-04T16:14:34;30.90;72.70
47336;DHT22;33068;51.990;5.926;2022-09-04T16:17:09;30.80;70.70
47336;DHT22;33068;51.990;5.926;2022-09-04T16:19:42;31.30;70.40
47336;DHT22;33068;51.990;5.926;2022-09-04T16:22:24;31.40;70.70
47336;DHT22;33068;51.990;5.926;2022-09-04T16:25:03;31.70;70.30
47336;DHT22;33068;51.990;5.926;2022-09-04T16:27:41;32.00;69.30
47336;DHT22;33068;51.990;5.926;2022-09-04T16:30:24;32.00;69.30
47336;DHT22;33068;51.990;5.926;2022-09-04T16:33:20;32.00;69.00
47336;DHT22;33068;51.990;5.926;2022-09-04T16:35:51;31.60;69.50
47336;DHT22;33068;51.990;5.926;2022-09-04T16:38:23;31.20;68.90
47336;DHT22;33068;51.990;5.926;2022-09-04T16:41:00;30.50;70.90
47336;DHT22;33068;51.990;5.926;2022-09-04T16:43:30;29.40;71.20
47336;DHT22;33068;51.990;5.926;2022-09-04T16:46:08;29.10;73.00
47336;DHT22;33068;51.990;5.926;2022-09-04T16:48:46;28.60;73.70
47336;DHT22;33068;51.990;5.926;2022-09-04T16:51:23;28.30;74.10
47336;DHT22;33068;51.990;5.926;2022-09-04T16:53:58;28.20;76.20
47336;DHT22;33068;51.990;5.926;2022-09-04T16:56:36;27.90;75.40
47336;DHT22;33068;51.990;5.926;2022-09-04T16:59:14;27.70;74.70
47336;DHT22;33068;51.990;5.926;2022-09-04T17:01:53;27.50;76.50
47336;DHT22;33068;51.990;5.926;2022-09-04T17:04:27;27.30;75.50
47336;DHT22;33068;51.990;5.926;2022-09-04T17:07:01;27.20;74.70
47336;DHT22;33068;51.990;5.926;2022-09-04T17:09:43;27.10;75.40
47336;DHT22;33068;51.990;5.926;2022-09-04T17:12:22;26.90;74.80
47336;DHT22;33068;51.990;5.926;2022-09-04T17:14:56;26.80;75.40
47336;DHT22;33068;51.990;5.926;2022-09-04T17:17:28;26.80;75.40
47336;DHT22;33068;51.990;5.926;2022-09-04T17:20:01;26.70;75.70
47336;DHT22;33068;51.990;5.926;2022-09-04T17:22:35;26.60;76.40
47336;DHT22;33068;51.990;5.926;2022-09-04T17:25:13;26.40;77.20
47336;DHT22;33068;51.990;5.926;2022-09-04T17:27:48;26.30;77.20
47336;DHT22;33068;51.990;5.926;2022-09-04T17:30:29;26.20;77.60
47336;DHT22;33068;51.990;5.926;2022-09-04T17:33:04;26.00;78.10
47336;DHT22;33068;51.990;5.926;2022-09-04T17:35:39;26.00;78.40
47336;DHT22;33068;51.990;5.926;2022-09-04T17:38:20;26.00;77.30
47336;DHT22;33068;51.990;5.926;2022-09-04T17:41:03;25.80;76.90
47336;DHT22;33068;51.990;5.926;2022-09-04T17:43:43;25.80;80.00
47336;DHT22;33068;51.990;5.926;2022-09-04T17:46:31;25.70;78.40
47336;DHT22;33068;51.990;5.926;2022-09-04T17:49:08;25.60;78.90
47336;DHT22;33068;51.990;5.926;2022-09-04T17:51:52;25.50;79.30
47336;DHT22;33068;51.990;5.926;2022-09-04T17:54:23;25.40;79.10
47336;DHT22;33068;51.990;5.926;2022-09-04T17:56:55;25.30;78.70
47336;DHT22;33068;51.990;5.926;2022-09-04T17:59:30;25.20;79.30
47336;DHT22;33068;51.990;5.926;2022-09-04T18:02:02;25.10;79.90
47336;DHT22;33068;51.990;5.926;2022-09-04T18:04:36;25.00;80.70
47336;DHT22;33068;51.990;5.926;2022-09-04T18:07:12;24.80;81.20
47336;DHT22;33068;51.990;5.926;2022-09-04T18:09:47;24.70;81.60
47336;DHT22;33068;51.990;5.926;2022-09-04T18:12:19;24.60;81.50
47336;DHT22;33068;51.990;5.926;2022-09-04T18:14:54;24.50;81.50
47336;DHT22;33068;51.990;5.926;2022-09-04T18:17:37;24.30;82.00
47336;DHT22;33068;51.990;5.926;2022-09-04T18:20:20;24.20;82.80
47336;DHT22;33068;51.990;5.926;2022-09-04T18:23:05;24.10;82.80
47336;DHT22;33068;51.990;5.926;2022-09-04T18:25:40;24.00;82.80
47336;DHT22;33068;51.990;5.926;2022-09-04T18:28:12;23.80;84.70
47336;DHT22;33068;51.990;5.926;2022-09-04T18:30:52;23.70;85.40
47336;DHT22;33068;51.990;5.926;2022-09-04T18:33:24;23.60;83.50
47336;DHT22;33068;51.990;5.926;2022-09-04T18:35:58;23.70;85.00